Weather History for KOSC - November, 2012

Change the Weather History Date:

Wednesday, November 14, 2012

  Actual Average Record
Temperature  
Mean Temperature 28 °F -  
Max Temperature 38 °F 43 °F 62 °F (2001)
Min Temperature 18 °F 30 °F 17 °F (2014)
Degree Days  
Heating Degree Days 37    
Moisture  
Dew Point 21 °F    
Average Humidity 74    
Maximum Humidity 92    
Minimum Humidity 51    
Precipitation  
Precipitation 0.00 in - - ()
Sea Level Pressure  
Sea Level Pressure 30.51 in    
Wind  
Wind Speed 5 mph (SSW)    
Max Wind Speed 12 mph    
Max Gust Speed 10 mph    
Visibility 10 miles    
Events      
Averages and records for this station are not official NWS values.
T = Trace of Precipitation, MM = Missing Value Source: NWS Daily Summary

Daily Weather History Graph

Daily Weather History Graph

Search for Another Location

Airport or City:

Trip Planner

Search our weather history database for the weather conditions in past years. The results will help you decide how hot, cold, wet, or windy it might be!

Date:

Astronomy

Nov. 14, 2012 Rise Set
Actual Time 7:29 AM EST 5:06 PM EST
Civil Twilight 6:57 AM EST 5:38 PM EST
Nautical Twilight 6:22 AM EST 6:13 PM EST
Astronomical Twilight 5:48 AM EST 6:47 PM EST
Moon 8:19 AM EST (11/14) 5:51 PM EST (11/14)
Length of Visible Light 10h 40m
Length of Day
9h 37m
New Moon, 1% of the Moon is Illuminated
Nov 14
New Moon
Nov 20
First Quarter
Nov 28
Full
Dec 6
Last Quarter
Dec 13
New

Hourly Weather History & Observations

Time (EST) Temp. Windchill Dew Point Humidity Pressure Visibility Wind Dir Wind Speed Gust Speed Precip Events Conditions
12:14 AM 22.1 °F 17.4 °F 19.4 °F 89% 30.51 in 10.0 mi WSW 3.5 mph - N/A   Clear
12:34 AM 22.8 °F 16.7 °F 19.6 °F 87% 30.51 in 10.0 mi WSW 4.6 mph - N/A   Clear
12:54 AM 21.7 °F 14.3 °F 18.3 °F 87% 30.51 in 10.0 mi WSW 5.8 mph - N/A   Clear
1:14 AM 21.9 °F 13.4 °F 17.4 °F 83% 30.52 in 10.0 mi SW 6.9 mph - N/A   Clear
1:34 AM 23.2 °F 16.0 °F 18.3 °F 82% 30.52 in 10.0 mi SW 5.8 mph - N/A   Clear
1:54 AM 20.7 °F 11.9 °F 16.7 °F 85% 30.52 in 10.0 mi SW 6.9 mph - N/A   Clear
2:14 AM 23.9 °F 15.8 °F 19.4 °F 83% 30.53 in 10.0 mi SW 6.9 mph - N/A   Clear
2:34 AM 23.9 °F 16.8 °F 19.4 °F 83% 30.53 in 10.0 mi SW 5.8 mph - N/A   Clear
2:54 AM 22.8 °F 15.5 °F 18.5 °F 83% 30.53 in 10.0 mi SW 5.8 mph - N/A   Clear
3:14 AM 23.9 °F 18.0 °F 19.2 °F 82% 30.53 in 10.0 mi SW 4.6 mph - N/A   Clear
3:34 AM 24.6 °F 18.8 °F 19.4 °F 81% 30.53 in 10.0 mi SSW 4.6 mph - N/A   Clear
3:54 AM 24.3 °F 19.9 °F 19.0 °F 80% 30.53 in 10.0 mi SSW 3.5 mph - N/A   Clear
4:14 AM 23.7 °F 19.3 °F 18.7 °F 81% 30.53 in 10.0 mi SSW 3.5 mph - N/A   Clear
4:34 AM 21.0 °F 14.6 °F 17.4 °F 86% 30.54 in 10.0 mi SW 4.6 mph - N/A   Clear
4:54 AM 21.0 °F 16.2 °F 19.0 °F 92% 30.54 in 10.0 mi SW 3.5 mph - N/A   Clear
5:14 AM 20.8 °F - 18.1 °F 89% 30.55 in 10.0 mi Calm Calm - N/A   Clear
5:33 AM 22.3 °F - 18.0 °F 83% 30.55 in 10.0 mi Calm Calm - N/A   Clear
5:54 AM 19.0 °F 13.9 °F 16.2 °F 89% 30.56 in 10.0 mi SW 3.5 mph - N/A   Clear
6:14 AM 19.2 °F 14.1 °F 16.5 °F 89% 30.56 in 10.0 mi WSW 3.5 mph - N/A   Clear
6:33 AM 19.8 °F 14.7 °F 17.6 °F 91% 30.56 in 10.0 mi SW 3.5 mph - N/A   Clear
6:54 AM 19.2 °F - 17.1 °F 91% 30.56 in 10.0 mi Calm Calm - N/A   Clear
7:14 AM 18.7 °F 11.9 °F 16.5 °F 91% 30.56 in 10.0 mi SW 4.6 mph - N/A   Clear
7:34 AM 20.3 °F 13.8 °F 17.4 °F 89% 30.56 in 10.0 mi SW 4.6 mph - N/A   Clear
7:54 AM 22.8 °F - 18.5 °F 83% 30.56 in 10.0 mi Calm Calm - N/A   Clear
8:14 AM 22.8 °F - 18.5 °F 83% 30.56 in 10.0 mi Calm Calm - N/A   Clear
8:34 AM 23.9 °F - 20.5 °F 87% 30.57 in 10.0 mi Calm Calm - N/A   Clear
8:54 AM 27.0 °F - 22.5 °F 83% 30.57 in 10.0 mi Calm Calm - N/A   Clear
9:14 AM 29.8 °F 26.3 °F 24.4 °F 80% 30.57 in 10.0 mi SW 3.5 mph - N/A   Clear
9:34 AM 31.3 °F 24.7 °F 25.2 °F 78% 30.57 in 10.0 mi SW 6.9 mph - N/A   Clear
9:54 AM 32.4 °F 26.0 °F 25.3 °F 75% 30.57 in 10.0 mi SW 6.9 mph - N/A   Clear
10:14 AM 34.9 °F 29.0 °F 26.1 °F 70% 30.57 in 10.0 mi SW 6.9 mph - N/A   Clear
10:34 AM 35.2 °F 30.3 °F 24.6 °F 65% 30.57 in 10.0 mi SSW 5.8 mph - N/A   Clear
10:54 AM 36.0 °F 29.6 °F 25.0 °F 64% 30.57 in 10.0 mi SW 8.1 mph - N/A   Clear
11:14 AM 37.9 °F 31.5 °F 25.2 °F 60% 30.56 in 10.0 mi SSW 9.2 mph - N/A   Clear
11:34 AM 38.3 °F 31.9 °F 24.3 °F 57% 30.56 in 10.0 mi South 9.2 mph - N/A   Clear
11:54 AM 38.3 °F 32.5 °F 22.6 °F 53% 30.55 in 10.0 mi South 8.1 mph - N/A   Clear
12:14 PM 37.8 °F 31.3 °F 23.0 °F 55% 30.54 in 10.0 mi SSW 9.2 mph - N/A   Clear
12:34 PM 38.3 °F 30.9 °F 22.6 °F 53% 30.53 in 10.0 mi SSW 11.5 mph - N/A   Clear
12:54 PM 38.3 °F 33.2 °F 21.7 °F 51% 30.52 in 10.0 mi South 6.9 mph 10.4 mph N/A   Clear
1:14 PM 37.8 °F 30.7 °F 21.6 °F 52% 30.52 in 10.0 mi South 10.4 mph - N/A   Scattered Clouds
1:34 PM 37.4 °F 32.1 °F 21.6 °F 53% 30.51 in 10.0 mi South 6.9 mph - N/A   Scattered Clouds
1:54 PM 37.4 °F 30.8 °F 21.4 °F 52% 30.51 in 10.0 mi South 9.2 mph - N/A   Scattered Clouds
2:13 PM 36.9 °F 30.1 °F 21.2 °F 53% 30.51 in 10.0 mi South 9.2 mph - N/A   Mostly Cloudy
2:34 PM 36.5 °F 29.2 °F 21.7 °F 55% 30.50 in 10.0 mi South 10.4 mph - N/A   Overcast
2:54 PM 36.1 °F 30.6 °F 21.7 °F 56% 30.49 in 10.0 mi South 6.9 mph - N/A   Overcast
3:14 PM 35.8 °F 28.3 °F 21.6 °F 56% 30.49 in 10.0 mi South 10.4 mph - N/A   Overcast
3:34 PM 35.6 °F 29.2 °F 21.9 °F 58% 30.49 in 10.0 mi SSE 8.1 mph - N/A   Overcast
3:54 PM 35.6 °F 28.6 °F 22.1 °F 58% 30.49 in 10.0 mi South 9.2 mph - N/A   Overcast
4:13 PM 35.4 °F 29.0 °F 22.6 °F 60% 30.48 in 10.0 mi South 8.1 mph - N/A   Mostly Cloudy
4:34 PM 34.7 °F 28.1 °F 23.0 °F 62% 30.48 in 10.0 mi South 8.1 mph - N/A   Clear
4:54 PM 34.2 °F 30.0 °F 23.2 °F 64% 30.48 in 10.0 mi South 4.6 mph - N/A   Mostly Cloudy
5:14 PM 33.4 °F 29.1 °F 23.0 °F 66% 30.48 in 10.0 mi SW 4.6 mph - N/A   Overcast
5:34 PM 32.9 °F 29.8 °F 23.0 °F 67% 30.47 in 10.0 mi South 3.5 mph - N/A   Mostly Cloudy
5:54 PM 32.9 °F 28.5 °F 22.6 °F 66% 30.47 in 10.0 mi South 4.6 mph - N/A   Scattered Clouds
6:14 PM 32.5 °F 29.3 °F 22.5 °F 66% 30.47 in 10.0 mi South 3.5 mph - N/A   Clear
6:34 PM 31.8 °F - 22.3 °F 68% 30.47 in 10.0 mi Calm Calm - N/A   Clear
6:54 PM 31.6 °F - 22.6 °F 69% 30.46 in 10.0 mi Calm Calm - N/A   Clear
7:14 PM 32.0 °F - 22.8 °F 69% 30.46 in 10.0 mi Calm Calm - N/A   Clear
7:34 PM 32.0 °F - 23.0 °F 69% 30.46 in 10.0 mi Calm Calm - N/A   Clear
7:54 PM 32.0 °F 28.7 °F 23.0 °F 69% 30.45 in 10.0 mi South 3.5 mph - N/A   Clear
8:14 PM 29.5 °F - 23.0 °F 77% 30.46 in 10.0 mi Calm Calm - N/A   Clear
8:34 PM 28.8 °F - 23.0 °F 79% 30.46 in 10.0 mi Calm Calm - N/A   Clear
8:54 PM 29.5 °F - 23.2 °F 77% 30.46 in 10.0 mi Calm Calm - N/A   Clear
9:34 PM 28.4 °F - 23.2 °F 81% 30.45 in 10.0 mi Calm Calm - N/A   Scattered Clouds
9:54 PM 28.0 °F - 23.2 °F 82% 30.45 in 10.0 mi Calm Calm - N/A   Scattered Clouds
10:14 PM 27.3 °F - 23.0 °F 84% 30.44 in 10.0 mi Calm Calm - N/A   Clear
10:34 PM 28.2 °F - 23.2 °F 81% 30.44 in 10.0 mi Calm Calm - N/A   Clear
10:54 PM 26.1 °F - 21.9 °F 84% 30.44 in 10.0 mi Calm Calm - N/A   Clear
11:14 PM 26.2 °F - 21.9 °F 84% 30.43 in 10.0 mi Calm Calm - N/A   Clear
11:34 PM 25.0 °F - 21.7 °F 87% 30.43 in 10.0 mi Calm Calm - N/A   Clear
11:54 PM 26.6 °F - 23.0 °F 86% 30.43 in 10.0 mi Calm Calm - N/A   Clear